CST,Max TemperatureF,Mean TemperatureF,Min TemperatureF,Max Dew PointF,MeanDew PointF,Min DewpointF,Max Humidity, Mean Humidity, Min Humidity, Max Sea Level PressureIn, Mean Sea Level PressureIn, Min Sea Level PressureIn, Max VisibilityMiles, Mean VisibilityMiles, Min VisibilityMiles, Max Wind SpeedMPH, Mean Wind SpeedMPH, Max Gust SpeedMPH,PrecipitationIn, CloudCover, Events, WindDirDegrees
2012-12-1,61,46,31,52,44,30,100,84,70,30.14,30.04,29.93,10,8,2,22,7,28,0.00,3,,159
2012-12-2,62,53,44,56,53,45,100,87,71,30.06,29.99,29.90,10,7,0,18,11,25,0.00,8,Fog-Rain,205
2012-12-3,71,61,51,62,58,51,100,85,64,30.05,29.93,29.82,10,6,0,28,12,37,0.00,6,Fog,182
2012-12-4,62,49,36,58,42,32,94,76,46,30.27,30.11,29.92,10,9,4,20,8,20,0.38,3,Rain,285
2012-12-5,42,36,30,32,30,23,92,76,62,30.42,30.34,30.22,10,10,10,9,6,,0.00,0,,63
2012-12-6,46,38,31,41,35,30,93,86,75,30.22,30.06,29.93,10,10,10,10,7,,0.00,2,,141
2012-12-7,46,44,41,44,43,41,99,95,90,29.95,29.91,29.86,10,5,1,10,4,,0.08,8,Rain,54
2012-12-8,43,40,36,42,38,34,99,90,74,30.09,29.98,29.84,10,8,2,15,5,,0.03,7,Rain,15
2012-12-9,46,41,36,46,39,34,100,94,86,30.07,29.85,29.74,10,7,0,18,12,22,0.10,8,Fog-Rain,129
2012-12-10,38,33,28,36,29,26,97,93,86,29.97,29.84,29.75,10,8,4,20,14,26,0.00,8,Snow,272
2012-12-11,34,27,20,28,25,19,96,85,67,30.18,30.07,29.97,10,10,10,18,10,25,0.00,2,,221
2012-12-12,44,34,23,31,27,22,92,79,56,30.34,30.28,30.18,10,10,10,14,7,18,0.00,0,,175
2012-12-13,46,37,28,32,29,26,94,77,56,30.32,30.24,30.15,10,10,10,22,11,28,0.00,0,,183
2012-12-14,48,38,27,37,32,26,95,79,58,30.23,30.15,30.04,10,10,7,10,5,16,0.00,0,,157
2012-12-15,51,44,36,49,42,32,97,89,74,30.05,29.77,29.61,10,9,3,21,11,29,0.10,7,Rain,158
2012-12-16,51,44,37,48,41,35,98,91,83,29.75,29.68,29.62,10,8,2,17,11,22,0.02,8,Rain,247
2012-12-17,38,36,34,35,34,32,92,87,81,29.75,29.72,29.65,10,9,7,8,3,,0.00,8,,293
2012-12-18,44,38,32,41,34,29,93,87,83,29.82,29.72,29.61,10,8,5,21,8,26,0.00,8,,206
2012-12-19,41,37,33,39,34,32,95,88,83,30.07,29.97,29.73,10,7,2,23,9,31,0.14,7,Rain,67
2012-12-20,50,41,32,50,39,29,97,93,82,29.74,29.31,29.08,10,6,2,32,19,45,0.85,8,Rain-Snow,164
2012-12-21,32,26,20,29,21,16,87,80,74,30.20,29.93,29.52,10,10,7,32,22,47,0.00,4,Snow,295
2012-12-22,32,24,15,26,20,13,94,85,70,30.24,30.13,29.94,10,10,10,10,6,,0.00,0,,211
2012-12-23,38,28,18,32,26,18,99,90,75,30.01,29.96,29.91,10,10,7,10,3,,0.00,2,,46
2012-12-24,33,30,26,31,27,25,96,88,80,30.08,29.92,29.83,10,10,5,13,8,,0.00,6,,349
2012-12-25,34,32,29,27,25,23,82,77,67,30.29,30.21,30.08,10,10,10,16,8,22,0.00,7,,14
2012-12-26,33,31,29,29,25,22,88,78,72,30.15,30.01,29.93,10,10,2,25,15,33,0.00,7,Snow,7
2012-12-27,32,30,28,29,26,23,94,85,80,30.18,30.14,30.06,10,10,7,13,6,17,0.00,8,,303
2012-12-28,32,31,30,31,29,26,100,92,83,30.12,30.01,29.87,10,7,2,12,5,,0.00,8,Snow,119
2012-12-29,32,26,21,32,25,18,100,90,80,30.25,30.01,29.86,10,7,1,20,8,28,0.00,8,Snow,283
2012-12-30,37,26,14,29,21,12,93,84,63,30.37,30.28,30.13,10,9,7,20,10,25,0.00,0,,212
2012-12-31,36,30,23,32,26,20,100,84,68,30.12,30.08,30.04,10,8,1,22,14,29,0.00,6,Snow,249